Mariq — SVA2152 — position and weather

sailwx.info

Track history (hours):
 
Tides and Currents Weather Stations Pressure Air Temp Water Temp Dewpoint Dewpoint Depression Visibility Wind Speed Wind Dir Waves Ship Positions

Mariq

Last reported at 2017-Nov-16 18:10 UTC. Time now 2017-Nov-22 15:02 UTC.
Position N 37°07' E 025°44'.

Length 57 m.

Type: Tanker. MMSI: 239758424.

Date/timePositionNaut miles runAvg speedWind from/ knotsBaromVisibWave heightAir tempDewpointWater temp
2017-Nov-16 18:10N 37°07' E 025°44'1 9.8
2017-Nov-16 18:00N 37°07' E 025°42'10 9.5
2017-Nov-16 16:55N 37°13' E 025°31'4 9.3
2017-Nov-16 16:30N 37°14' E 025°26'5 9.2
2017-Nov-16 16:00N 37°15' E 025°21'5 9.6
2017-Nov-16 15:30N 37°16' E 025°15'5 9.5
2017-Nov-16 15:00N 37°17' E 025°09'510.0
2017-Nov-16 14:30N 37°19' E 025°03'5 9.9
2017-Nov-16 14:00N 37°20' E 024°57'5 9.9
2017-Nov-16 13:30N 37°21' E 024°51'510.0
2017-Nov-16 13:00N 37°22' E 024°45'  
2017-Nov-12 11:54N 37°38' E 024°07'3110.3
2017-Nov-12 08:51N 37°38' E 024°46'410.7
2017-Nov-12 08:30N 37°37' E 024°51'810.6
2017-Nov-12 07:46N 37°34' E 024°60'310.3
2017-Nov-12 07:30N 37°33' E 025°03'510.1
2017-Nov-12 07:00N 37°31' E 025°09'5 9.8
2017-Nov-12 06:30N 37°31' E 025°15'5 9.9
2017-Nov-12 06:00N 37°30' E 025°22'510.2
2017-Nov-12 05:30N 37°30' E 025°28'510.1
2017-Nov-12 05:00N 37°28' E 025°34'5 9.8
2017-Nov-12 04:30N 37°27' E 025°40'510.0
2017-Nov-12 04:00N 37°26' E 025°46'510.4
2017-Nov-12 03:30N 37°25' E 025°52'  
Track history (hours):
 
Tides and Currents Weather Stations Pressure Air Temp Water Temp Dewpoint Dewpoint Depression Visibility Wind Speed Wind Dir Waves Ship Positions

Mariq

Last reported at 2017-Nov-16 18:10 UTC. Time now 2017-Nov-22 15:02 UTC.
Position N 37°07' E 025°44'.

Length 57 m.

Type: Tanker. MMSI: 239758424.

Date/timePositionNaut miles runAvg speedWind from/ knotsBaromVisibWave heightAir tempDewpointWater temp
2017-Nov-16 18:10N 37°07' E 025°44'1 9.8
2017-Nov-16 18:00N 37°07' E 025°42'10 9.5
2017-Nov-16 16:55N 37°13' E 025°31'4 9.3
2017-Nov-16 16:30N 37°14' E 025°26'5 9.2
2017-Nov-16 16:00N 37°15' E 025°21'5 9.6
2017-Nov-16 15:30N 37°16' E 025°15'5 9.5
2017-Nov-16 15:00N 37°17' E 025°09'510.0
2017-Nov-16 14:30N 37°19' E 025°03'5 9.9
2017-Nov-16 14:00N 37°20' E 024°57'5 9.9
2017-Nov-16 13:30N 37°21' E 024°51'510.0
2017-Nov-16 13:00N 37°22' E 024°45'  
2017-Nov-12 11:54N 37°38' E 024°07'3110.3
2017-Nov-12 08:51N 37°38' E 024°46'410.7
2017-Nov-12 08:30N 37°37' E 024°51'810.6
2017-Nov-12 07:46N 37°34' E 024°60'310.3
2017-Nov-12 07:30N 37°33' E 025°03'510.1
2017-Nov-12 07:00N 37°31' E 025°09'5 9.8
2017-Nov-12 06:30N 37°31' E 025°15'5 9.9
2017-Nov-12 06:00N 37°30' E 025°22'510.2
2017-Nov-12 05:30N 37°30' E 025°28'510.1
2017-Nov-12 05:00N 37°28' E 025°34'5 9.8
2017-Nov-12 04:30N 37°27' E 025°40'510.0
2017-Nov-12 04:00N 37°26' E 025°46'510.4
2017-Nov-12 03:30N 37°25' E 025°52'  

Dump ship's entire track history